sensor_id;sensor_type;location;lat;lon;timestamp;pressure;altitude;pressure_sealevel;temperature;humidity
70589;BME280;58152;49.202;18.744;2023-01-31T00:00:42;96771.00;;;1.03;79.00
70589;BME280;58152;49.202;18.744;2023-01-31T00:03:08;96769.31;;;1.00;78.64
70589;BME280;58152;49.202;18.744;2023-01-31T00:05:33;96774.66;;;0.90;79.06
70589;BME280;58152;49.202;18.744;2023-01-31T00:07:58;96779.00;;;0.89;79.09
70589;BME280;58152;49.202;18.744;2023-01-31T00:10:25;96773.84;;;0.86;79.04
70589;BME280;58152;49.202;18.744;2023-01-31T00:12:51;96779.97;;;0.81;79.28
70589;BME280;58152;49.202;18.744;2023-01-31T00:15:17;96773.16;;;0.78;79.01
70589;BME280;58152;49.202;18.744;2023-01-31T00:17:43;96769.69;;;0.77;79.16
70589;BME280;58152;49.202;18.744;2023-01-31T00:20:10;96774.03;;;0.75;79.29
70589;BME280;58152;49.202;18.744;2023-01-31T00:22:36;96780.91;;;0.76;79.27
70589;BME280;58152;49.202;18.744;2023-01-31T00:25:02;96771.50;;;0.72;79.70
70589;BME280;58152;49.202;18.744;2023-01-31T00:27:28;96770.66;;;0.73;79.28
70589;BME280;58152;49.202;18.744;2023-01-31T00:29:53;96774.09;;;0.74;79.76
70589;BME280;58152;49.202;18.744;2023-01-31T00:32:19;96764.59;;;0.74;79.21
70589;BME280;58152;49.202;18.744;2023-01-31T00:34:44;96762.03;;;0.73;79.69
70589;BME280;58152;49.202;18.744;2023-01-31T00:37:09;96756.81;;;0.76;79.61
70589;BME280;58152;49.202;18.744;2023-01-31T00:39:35;96759.47;;;0.71;79.31
70589;BME280;58152;49.202;18.744;2023-01-31T00:42:00;96761.22;;;0.71;79.03
70589;BME280;58152;49.202;18.744;2023-01-31T00:44:26;96780.06;;;0.76;79.08
70589;BME280;58152;49.202;18.744;2023-01-31T00:46:51;96776.66;;;0.72;79.66
70589;BME280;58152;49.202;18.744;2023-01-31T00:49:16;96780.09;;;0.74;79.18
70589;BME280;58152;49.202;18.744;2023-01-31T00:51:42;96787.03;;;0.71;78.85
70589;BME280;58152;49.202;18.744;2023-01-31T00:54:09;96792.16;;;0.74;79.37
70589;BME280;58152;49.202;18.744;2023-01-31T00:56:34;96787.72;;;0.81;79.93
70589;BME280;58152;49.202;18.744;2023-01-31T00:59:05;96798.78;;;0.90;79.67
70589;BME280;58152;49.202;18.744;2023-01-31T01:01:33;96797.84;;;0.94;79.72
70589;BME280;58152;49.202;18.744;2023-01-31T01:03:59;96813.31;;;0.96;78.92
70589;BME280;58152;49.202;18.744;2023-01-31T01:06:25;96814.25;;;0.90;79.09
70589;BME280;58152;49.202;18.744;2023-01-31T01:08:52;96827.19;;;0.90;79.11
70589;BME280;58152;49.202;18.744;2023-01-31T01:11:30;96819.50;;;0.87;78.53
70589;BME280;58152;49.202;18.744;2023-01-31T01:13:57;96821.19;;;0.87;79.21
70589;BME280;58152;49.202;18.744;2023-01-31T01:16:29;96827.31;;;0.81;79.38
70589;BME280;58152;49.202;18.744;2023-01-31T01:18:55;96828.19;;;0.80;79.24
70589;BME280;58152;49.202;18.744;2023-01-31T01:21:23;96834.22;;;0.81;79.14
70589;BME280;58152;49.202;18.744;2023-01-31T01:23:49;96833.41;;;0.79;79.01
70589;BME280;58152;49.202;18.744;2023-01-31T01:26:26;96824.78;;;0.80;78.75
70589;BME280;58152;49.202;18.744;2023-01-31T01:28:53;96835.88;;;0.85;79.24
70589;BME280;58152;49.202;18.744;2023-01-31T01:31:19;96828.19;;;0.80;79.11
70589;BME280;58152;49.202;18.744;2023-01-31T01:33:46;96828.19;;;0.80;78.95
70589;BME280;58152;49.202;18.744;2023-01-31T01:36:14;96851.41;;;0.83;78.64
70589;BME280;58152;49.202;18.744;2023-01-31T01:38:42;96854.84;;;0.82;78.97
70589;BME280;58152;49.202;18.744;2023-01-31T01:41:20;96847.97;;;0.81;78.78
70589;BME280;58152;49.202;18.744;2023-01-31T01:43:54;96850.53;;;0.84;79.05
70589;BME280;58152;49.202;18.744;2023-01-31T01:46:25;96861.63;;;0.89;78.63
70589;BME280;58152;49.202;18.744;2023-01-31T01:51:46;96859.94;;;0.88;78.90
70589;BME280;58152;49.202;18.744;2023-01-31T01:54:16;96869.41;;;0.88;78.89
70589;BME280;58152;49.202;18.744;2023-01-31T01:56:44;96882.31;;;0.89;78.96
70589;BME280;58152;49.202;18.744;2023-01-31T01:59:15;96875.44;;;0.87;79.14
70589;BME280;58152;49.202;18.744;2023-01-31T02:01:42;96871.16;;;0.86;79.71
70589;BME280;58152;49.202;18.744;2023-01-31T02:04:12;96872.88;;;0.85;79.59
70589;BME280;58152;49.202;18.744;2023-01-31T02:06:40;96878.91;;;0.86;79.11
70589;BME280;58152;49.202;18.744;2023-01-31T02:09:08;96885.78;;;0.87;79.09
70589;BME280;58152;49.202;18.744;2023-01-31T02:11:37;96880.66;;;0.82;79.05
70589;BME280;58152;49.202;18.744;2023-01-31T02:14:07;96881.53;;;0.84;79.06
70589;BME280;58152;49.202;18.744;2023-01-31T02:16:34;96886.63;;;0.89;78.95
70589;BME280;58152;49.202;18.744;2023-01-31T02:19:00;96874.63;;;0.85;79.10
70589;BME280;58152;49.202;18.744;2023-01-31T02:21:41;96872.94;;;0.84;78.92
70589;BME280;58152;49.202;18.744;2023-01-31T02:24:42;96880.66;;;0.84;79.48
70589;BME280;58152;49.202;18.744;2023-01-31T02:27:30;96899.63;;;0.83;78.78
70589;BME280;58152;49.202;18.744;2023-01-31T02:35:37;96915.91;;;0.88;78.58
70589;BME280;58152;49.202;18.744;2023-01-31T02:41:00;96911.56;;;0.90;77.78
70589;BME280;58152;49.202;18.744;2023-01-31T02:46:52;96919.31;;;0.90;77.22
70589;BME280;58152;49.202;18.744;2023-01-31T02:49:21;96909.84;;;0.90;76.97
70589;BME280;58152;49.202;18.744;2023-01-31T02:52:18;96921.88;;;0.91;76.46
70589;BME280;58152;49.202;18.744;2023-01-31T02:57:52;96920.09;;;0.95;75.69
70589;BME280;58152;49.202;18.744;2023-01-31T03:00:21;96923.56;;;0.94;75.53
70589;BME280;58152;49.202;18.744;2023-01-31T03:02:46;96926.94;;;0.99;75.15
70589;BME280;58152;49.202;18.744;2023-01-31T03:05:16;96928.66;;;0.98;75.29
70589;BME280;58152;49.202;18.744;2023-01-31T03:07:46;96931.22;;;1.00;75.29
70589;BME280;58152;49.202;18.744;2023-01-31T03:10:45;96934.63;;;1.04;74.98
70589;BME280;58152;49.202;18.744;2023-01-31T03:15:54;96930.31;;;1.04;74.90
70589;BME280;58152;49.202;18.744;2023-01-31T03:21:26;96943.22;;;1.06;74.46
70589;BME280;58152;49.202;18.744;2023-01-31T03:23:56;96938.09;;;1.02;74.14
70589;BME280;58152;49.202;18.744;2023-01-31T03:26:23;96929.41;;;1.05;74.48
70589;BME280;58152;49.202;18.744;2023-01-31T03:28:51;96926.06;;;1.01;74.02
70589;BME280;58152;49.202;18.744;2023-01-31T03:34:00;96939.75;;;1.07;73.89
70589;BME280;58152;49.202;18.744;2023-01-31T03:36:45;96951.75;;;1.09;74.79
70589;BME280;58152;49.202;18.744;2023-01-31T03:42:22;96936.38;;;1.01;74.65
70589;BME280;58152;49.202;18.744;2023-01-31T03:45:01;96948.41;;;1.02;75.20
70589;BME280;58152;49.202;18.744;2023-01-31T03:47:36;96954.44;;;1.03;75.67
70589;BME280;58152;49.202;18.744;2023-01-31T03:50:24;96949.41;;;0.94;75.74
70589;BME280;58152;49.202;18.744;2023-01-31T03:52:56;96965.66;;;1.00;75.51
70589;BME280;58152;49.202;18.744;2023-01-31T03:55:33;96956.28;;;0.96;76.35
70589;BME280;58152;49.202;18.744;2023-01-31T03:58:02;96961.38;;;0.99;75.59
70589;BME280;58152;49.202;18.744;2023-01-31T04:00:33;96966.53;;;0.99;76.14
70589;BME280;58152;49.202;18.744;2023-01-31T04:03:10;96953.66;;;0.98;76.13
70589;BME280;58152;49.202;18.744;2023-01-31T04:05:39;96956.25;;;0.98;76.17
70589;BME280;58152;49.202;18.744;2023-01-31T04:08:05;96957.97;;;0.97;76.36
70589;BME280;58152;49.202;18.744;2023-01-31T04:10:30;96969.13;;;0.99;76.35
70589;BME280;58152;49.202;18.744;2023-01-31T04:12:56;96959.66;;;0.98;75.57
70589;BME280;58152;49.202;18.744;2023-01-31T04:15:21;96969.97;;;1.00;76.04
70589;BME280;58152;49.202;18.744;2023-01-31T04:17:47;96987.16;;;1.04;75.99
70589;BME280;58152;49.202;18.744;2023-01-31T04:20:12;96994.88;;;1.04;76.33
70589;BME280;58152;49.202;18.744;2023-01-31T04:22:38;96985.47;;;1.00;76.67
70589;BME280;58152;49.202;18.744;2023-01-31T04:25:04;96989.78;;;0.99;75.98
70589;BME280;58152;49.202;18.744;2023-01-31T04:27:30;96995.81;;;1.00;76.84
70589;BME280;58152;49.202;18.744;2023-01-31T04:29:56;97001.00;;;0.98;76.83
70589;BME280;58152;49.202;18.744;2023-01-31T04:32:21;97018.22;;;0.99;77.53
70589;BME280;58152;49.202;18.744;2023-01-31T04:34:47;97014.81;;;0.96;77.12
70589;BME280;58152;49.202;18.744;2023-01-31T04:37:13;97026.84;;;0.98;77.25
70589;BME280;58152;49.202;18.744;2023-01-31T04:39:38;97019.16;;;0.94;77.80
70589;BME280;58152;49.202;18.744;2023-01-31T04:42:03;97023.41;;;0.98;77.87
70589;BME280;58152;49.202;18.744;2023-01-31T04:44:29;97020.03;;;0.93;78.13
70589;BME280;58152;49.202;18.744;2023-01-31T04:46:54;97020.91;;;0.90;78.22
70589;BME280;58152;49.202;18.744;2023-01-31T04:49:20;97028.66;;;0.92;78.53
70589;BME280;58152;49.202;18.744;2023-01-31T04:51:45;97041.56;;;0.90;78.24
70589;BME280;58152;49.202;18.744;2023-01-31T04:54:11;97042.41;;;0.91;78.16
70589;BME280;58152;49.202;18.744;2023-01-31T04:56:38;97057.06;;;0.90;78.66
70589;BME280;58152;49.202;18.744;2023-01-31T04:59:03;97065.72;;;0.86;78.35
70589;BME280;58152;49.202;18.744;2023-01-31T05:01:29;97064.03;;;0.85;78.77
70589;BME280;58152;49.202;18.744;2023-01-31T05:03:55;97074.31;;;0.87;78.83
70589;BME280;58152;49.202;18.744;2023-01-31T05:06:21;97078.59;;;0.91;78.91
70589;BME280;58152;49.202;18.744;2023-01-31T05:08:46;97056.28;;;0.85;78.78
70589;BME280;58152;49.202;18.744;2023-01-31T05:11:13;97070.00;;;0.89;78.40
70589;BME280;58152;49.202;18.744;2023-01-31T05:13:38;97078.63;;;0.88;78.55
70589;BME280;58152;49.202;18.744;2023-01-31T05:16:08;97080.38;;;0.87;78.52
70589;BME280;58152;49.202;18.744;2023-01-31T05:18:35;97082.94;;;0.86;78.98
70589;BME280;58152;49.202;18.744;2023-01-31T05:21:01;97086.38;;;0.88;78.05
70589;BME280;58152;49.202;18.744;2023-01-31T05:23:27;97087.25;;;0.87;78.59
70589;BME280;58152;49.202;18.744;2023-01-31T05:25:53;97108.78;;;0.87;78.01
70589;BME280;58152;49.202;18.744;2023-01-31T05:28:18;97105.31;;;0.88;77.98
70589;BME280;58152;49.202;18.744;2023-01-31T05:30:44;97092.47;;;0.81;77.67
70589;BME280;58152;49.202;18.744;2023-01-31T05:33:09;97106.22;;;0.84;78.21
70589;BME280;58152;49.202;18.744;2023-01-31T05:35:35;97109.66;;;0.85;77.66
70589;BME280;58152;49.202;18.744;2023-01-31T05:38:01;97105.38;;;0.84;77.64
70589;BME280;58152;49.202;18.744;2023-01-31T05:40:27;97111.41;;;0.84;77.88
70589;BME280;58152;49.202;18.744;2023-01-31T05:42:56;97113.97;;;0.84;77.48
70589;BME280;58152;49.202;18.744;2023-01-31T05:45:24;97122.56;;;0.86;76.58
70589;BME280;58152;49.202;18.744;2023-01-31T05:47:50;97126.03;;;0.84;76.52
70589;BME280;58152;49.202;18.744;2023-01-31T05:50:16;97125.19;;;0.83;76.40
70589;BME280;58152;49.202;18.744;2023-01-31T05:52:41;97119.16;;;0.83;76.49
70589;BME280;58152;49.202;18.744;2023-01-31T05:55:07;97117.41;;;0.85;76.23
70589;BME280;58152;49.202;18.744;2023-01-31T05:57:33;97128.63;;;0.82;76.43
70589;BME280;58152;49.202;18.744;2023-01-31T05:59:58;97138.06;;;0.85;75.50
70589;BME280;58152;49.202;18.744;2023-01-31T06:02:25;97138.97;;;0.81;75.30
70589;BME280;58152;49.202;18.744;2023-01-31T06:04:50;97133.81;;;0.81;74.92
70589;BME280;58152;49.202;18.744;2023-01-31T06:07:16;97142.47;;;0.78;74.49
70589;BME280;58152;49.202;18.744;2023-01-31T06:09:41;97145.03;;;0.76;74.71
70589;BME280;58152;49.202;18.744;2023-01-31T06:12:12;97154.50;;;0.76;74.51
70589;BME280;58152;49.202;18.744;2023-01-31T06:14:38;97151.97;;;0.71;74.15
70589;BME280;58152;49.202;18.744;2023-01-31T06:17:04;97160.59;;;0.73;74.37
70589;BME280;58152;49.202;18.744;2023-01-31T06:19:29;97173.50;;;0.70;73.83
70589;BME280;58152;49.202;18.744;2023-01-31T06:21:55;97191.63;;;0.69;73.91
70589;BME280;58152;49.202;18.744;2023-01-31T06:24:20;97176.16;;;0.63;73.48
70589;BME280;58152;49.202;18.744;2023-01-31T06:26:46;97193.38;;;0.62;72.96
70589;BME280;58152;49.202;18.744;2023-01-31T06:29:11;97177.09;;;0.56;72.37
70589;BME280;58152;49.202;18.744;2023-01-31T06:31:37;97195.97;;;0.59;73.01
70589;BME280;58152;49.202;18.744;2023-01-31T06:34:02;97192.59;;;0.54;73.33
70589;BME280;58152;49.202;18.744;2023-01-31T06:36:30;97193.44;;;0.56;73.39
70589;BME280;58152;49.202;18.744;2023-01-31T06:38:56;97199.47;;;0.54;73.17
70589;BME280;58152;49.202;18.744;2023-01-31T06:41:21;97204.69;;;0.47;72.83
70589;BME280;58152;49.202;18.744;2023-01-31T06:43:47;97210.69;;;0.51;73.13
70589;BME280;58152;49.202;18.744;2023-01-31T06:46:12;97209.84;;;0.50;73.47
70589;BME280;58152;49.202;18.744;2023-01-31T06:48:38;97209.84;;;0.47;72.54
70589;BME280;58152;49.202;18.744;2023-01-31T06:51:03;97217.59;;;0.47;73.15
70589;BME280;58152;49.202;18.744;2023-01-31T06:53:29;97221.03;;;0.48;72.95
70589;BME280;58152;49.202;18.744;2023-01-31T06:55:54;97223.59;;;0.49;73.10
70589;BME280;58152;49.202;18.744;2023-01-31T06:58:20;97233.94;;;0.51;73.06
70589;BME280;58152;49.202;18.744;2023-01-31T07:00:48;97239.09;;;0.51;72.83
70589;BME280;58152;49.202;18.744;2023-01-31T07:03:16;97239.09;;;0.49;72.95
70589;BME280;58152;49.202;18.744;2023-01-31T07:05:44;97239.09;;;0.51;72.90
70589;BME280;58152;49.202;18.744;2023-01-31T07:08:10;97248.56;;;0.49;72.62
70589;BME280;58152;49.202;18.744;2023-01-31T07:10:35;97254.56;;;0.53;73.01
70589;BME280;58152;49.202;18.744;2023-01-31T07:13:01;97259.72;;;0.53;72.18
70589;BME280;58152;49.202;18.744;2023-01-31T07:15:26;97255.47;;;0.47;72.30
70589;BME280;58152;49.202;18.744;2023-01-31T07:17:58;97254.63;;;0.43;71.96
70589;BME280;58152;49.202;18.744;2023-01-31T07:20:24;97263.22;;;0.41;72.05
70589;BME280;58152;49.202;18.744;2023-01-31T07:22:56;97274.44;;;0.41;72.08
70589;BME280;58152;49.202;18.744;2023-01-31T07:25:22;97266.75;;;0.32;71.56
70589;BME280;58152;49.202;18.744;2023-01-31T07:27:48;97265.03;;;0.30;71.70
70589;BME280;58152;49.202;18.744;2023-01-31T07:30:13;97281.34;;;0.32;71.82
70589;BME280;58152;49.202;18.744;2023-01-31T07:32:39;97276.22;;;0.33;71.98
70589;BME280;58152;49.202;18.744;2023-01-31T07:35:05;97279.66;;;0.32;72.05
70589;BME280;58152;49.202;18.744;2023-01-31T07:37:30;97285.69;;;0.33;71.97
70589;BME280;58152;49.202;18.744;2023-01-31T07:39:56;97294.25;;;0.38;71.94
70589;BME280;58152;49.202;18.744;2023-01-31T07:42:21;97297.69;;;0.38;71.87
70589;BME280;58152;49.202;18.744;2023-01-31T07:44:46;97299.41;;;0.38;71.56
70589;BME280;58152;49.202;18.744;2023-01-31T07:47:15;97284.78;;;0.41;72.36
70589;BME280;58152;49.202;18.744;2023-01-31T07:49:40;97283.00;;;0.45;71.59
70589;BME280;58152;49.202;18.744;2023-01-31T07:52:06;97290.75;;;0.48;71.94
70589;BME280;58152;49.202;18.744;2023-01-31T07:54:31;97294.16;;;0.50;72.24
70589;BME280;58152;49.202;18.744;2023-01-31T07:56:56;97295.91;;;0.45;72.42
70589;BME280;58152;49.202;18.744;2023-01-31T07:59:22;97294.16;;;0.52;72.08
70589;BME280;58152;49.202;18.744;2023-01-31T08:01:47;97296.69;;;0.55;72.11
70589;BME280;58152;49.202;18.744;2023-01-31T08:04:33;97295.81;;;0.59;72.00
70589;BME280;58152;49.202;18.744;2023-01-31T08:06:58;97305.28;;;0.64;71.18
70589;BME280;58152;49.202;18.744;2023-01-31T08:09:27;97306.97;;;0.65;71.75
70589;BME280;58152;49.202;18.744;2023-01-31T08:11:52;97292.34;;;0.64;71.47
70589;BME280;58152;49.202;18.744;2023-01-31T08:14:18;97294.06;;;0.65;71.20
70589;BME280;58152;49.202;18.744;2023-01-31T08:16:49;97303.53;;;0.66;70.85
70589;BME280;58152;49.202;18.744;2023-01-31T08:19:15;97312.06;;;0.73;70.55
70589;BME280;58152;49.202;18.744;2023-01-31T08:21:40;97306.88;;;0.76;70.65
70589;BME280;58152;49.202;18.744;2023-01-31T08:24:06;97310.31;;;0.80;70.63
70589;BME280;58152;49.202;18.744;2023-01-31T08:26:31;97308.59;;;0.79;69.95
70589;BME280;58152;49.202;18.744;2023-01-31T08:28:57;97314.59;;;0.84;70.55
70589;BME280;58152;49.202;18.744;2023-01-31T08:31:25;97324.84;;;0.91;70.80
70589;BME280;58152;49.202;18.744;2023-01-31T08:33:52;97333.44;;;0.96;70.55
70589;BME280;58152;49.202;18.744;2023-01-31T08:36:25;97333.41;;;0.99;69.54
70589;BME280;58152;49.202;18.744;2023-01-31T08:38:51;97335.97;;;0.99;70.02
70589;BME280;58152;49.202;18.744;2023-01-31T08:41:17;97336.81;;;1.03;70.09
70589;BME280;58152;49.202;18.744;2023-01-31T08:43:44;97337.66;;;1.07;69.31
70589;BME280;58152;49.202;18.744;2023-01-31T08:46:10;97331.59;;;1.09;69.53
70589;BME280;58152;49.202;18.744;2023-01-31T08:48:37;97337.59;;;1.16;69.02
70589;BME280;58152;49.202;18.744;2023-01-31T08:51:05;97336.72;;;1.17;69.01
70589;BME280;58152;49.202;18.744;2023-01-31T08:53:30;97335.84;;;1.18;68.96
70589;BME280;58152;49.202;18.744;2023-01-31T08:56:01;97346.16;;;1.21;68.62
70589;BME280;58152;49.202;18.744;2023-01-31T08:58:27;97353.03;;;1.22;68.66
70589;BME280;58152;49.202;18.744;2023-01-31T09:00:53;97338.38;;;1.24;68.69
70589;BME280;58152;49.202;18.744;2023-01-31T09:03:19;97351.25;;;1.30;68.00
70589;BME280;58152;49.202;18.744;2023-01-31T09:05:44;97354.69;;;1.31;67.66
70589;BME280;58152;49.202;18.744;2023-01-31T09:08:10;97346.94;;;1.31;67.46
70589;BME280;58152;49.202;18.744;2023-01-31T09:10:36;97362.38;;;1.38;66.91
70589;BME280;58152;49.202;18.744;2023-01-31T09:13:01;97363.22;;;1.37;66.87
70589;BME280;58152;49.202;18.744;2023-01-31T09:15:27;97366.69;;;1.39;66.90
70589;BME280;58152;49.202;18.744;2023-01-31T09:17:52;97371.81;;;1.41;67.17
70589;BME280;58152;49.202;18.744;2023-01-31T09:20:18;97375.25;;;1.41;67.31
70589;BME280;58152;49.202;18.744;2023-01-31T09:22:43;97381.25;;;1.46;66.83
70589;BME280;58152;49.202;18.744;2023-01-31T09:25:09;97370.94;;;1.43;67.02
70589;BME280;58152;49.202;18.744;2023-01-31T09:27:36;97388.97;;;1.51;66.95
70589;BME280;58152;49.202;18.744;2023-01-31T09:30:04;97390.75;;;1.47;66.70
70589;BME280;58152;49.202;18.744;2023-01-31T09:32:30;97389.88;;;1.47;66.77
70589;BME280;58152;49.202;18.744;2023-01-31T09:34:57;97399.34;;;1.48;66.49
70589;BME280;58152;49.202;18.744;2023-01-31T09:37:22;97387.28;;;1.45;66.53
70589;BME280;58152;49.202;18.744;2023-01-31T09:39:47;97400.22;;;1.47;66.21
70589;BME280;58152;49.202;18.744;2023-01-31T09:42:34;97395.91;;;1.47;66.20
70589;BME280;58152;49.202;18.744;2023-01-31T09:45:10;97399.31;;;1.51;66.03
70589;BME280;58152;49.202;18.744;2023-01-31T09:47:48;97409.63;;;1.57;66.02
70589;BME280;58152;49.202;18.744;2023-01-31T09:52:56;97392.31;;;1.62;65.74
70589;BME280;58152;49.202;18.744;2023-01-31T10:10:51;97403.28;;;1.87;65.63
70589;BME280;58152;49.202;18.744;2023-01-31T10:13:32;97412.72;;;1.91;64.88
70589;BME280;58152;49.202;18.744;2023-01-31T10:18:56;97422.19;;;1.92;65.39
70589;BME280;58152;49.202;18.744;2023-01-31T10:21:30;97415.38;;;1.88;65.53
70589;BME280;58152;49.202;18.744;2023-01-31T10:24:25;97425.66;;;1.93;65.25
70589;BME280;58152;49.202;18.744;2023-01-31T10:26:57;97415.34;;;1.90;65.71
70589;BME280;58152;49.202;18.744;2023-01-31T10:29:39;97421.34;;;1.93;66.15
70589;BME280;58152;49.202;18.744;2023-01-31T10:32:27;97412.63;;;2.02;65.53
70589;BME280;58152;49.202;18.744;2023-01-31T10:35:06;97397.16;;;1.97;65.45
70589;BME280;58152;49.202;18.744;2023-01-31T10:37:40;97406.53;;;2.06;65.78
70589;BME280;58152;49.202;18.744;2023-01-31T10:40:21;97405.66;;;2.07;65.51
70589;BME280;58152;49.202;18.744;2023-01-31T10:42:57;97401.38;;;2.04;65.15
70589;BME280;58152;49.202;18.744;2023-01-31T10:45:26;97405.66;;;2.07;65.54
70589;BME280;58152;49.202;18.744;2023-01-31T10:48:13;97409.06;;;2.12;65.78
70589;BME280;58152;49.202;18.744;2023-01-31T10:56:01;97410.53;;;2.33;65.53
70589;BME280;58152;49.202;18.744;2023-01-31T10:58:28;97409.63;;;2.37;65.57
70589;BME280;58152;49.202;18.744;2023-01-31T11:00:54;97406.91;;;2.46;65.44
70589;BME280;58152;49.202;18.744;2023-01-31T11:03:20;97405.19;;;2.48;65.41
70589;BME280;58152;49.202;18.744;2023-01-31T11:05:55;97420.63;;;2.54;65.11
70589;BME280;58152;49.202;18.744;2023-01-31T11:08:41;97414.63;;;2.52;65.26
70589;BME280;58152;49.202;18.744;2023-01-31T11:11:10;97418.88;;;2.57;65.21
70589;BME280;58152;49.202;18.744;2023-01-31T11:13:36;97413.69;;;2.57;65.07
70589;BME280;58152;49.202;18.744;2023-01-31T11:16:06;97415.38;;;2.62;65.36
70589;BME280;58152;49.202;18.744;2023-01-31T11:18:52;97407.66;;;2.58;64.84
70589;BME280;58152;49.202;18.744;2023-01-31T11:21:25;97408.56;;;2.53;64.48
70589;BME280;58152;49.202;18.744;2023-01-31T11:24:02;97411.13;;;2.55;65.33
70589;BME280;58152;49.202;18.744;2023-01-31T11:26:34;97393.84;;;2.57;65.03
70589;BME280;58152;49.202;18.744;2023-01-31T11:29:27;97389.56;;;2.54;65.19
70589;BME280;58152;49.202;18.744;2023-01-31T11:31:51;97387.84;;;2.53;64.89
70589;BME280;58152;49.202;18.744;2023-01-31T11:34:25;97386.13;;;2.54;64.85
70589;BME280;58152;49.202;18.744;2023-01-31T11:36:51;97389.56;;;2.54;64.84
70589;BME280;58152;49.202;18.744;2023-01-31T11:39:24;97387.81;;;2.55;65.14
70589;BME280;58152;49.202;18.744;2023-01-31T11:41:50;97378.31;;;2.55;65.05
70589;BME280;58152;49.202;18.744;2023-01-31T11:44:18;97367.03;;;2.60;65.45
70589;BME280;58152;49.202;18.744;2023-01-31T11:46:56;97378.97;;;2.70;65.21
70589;BME280;58152;49.202;18.744;2023-01-31T11:51:54;97367.44;;;2.92;64.91
70589;BME280;58152;49.202;18.744;2023-01-31T11:54:26;97364.78;;;2.98;64.93
70589;BME280;58152;49.202;18.744;2023-01-31T11:56:53;97369.09;;;2.96;64.88
70589;BME280;58152;49.202;18.744;2023-01-31T11:59:23;97372.66;;;2.91;65.40
70589;BME280;58152;49.202;18.744;2023-01-31T12:01:51;97377.88;;;2.89;65.28
70589;BME280;58152;49.202;18.744;2023-01-31T12:04:28;97361.59;;;2.79;65.19
70589;BME280;58152;49.202;18.744;2023-01-31T12:07:00;97353.81;;;2.79;64.99
70589;BME280;58152;49.202;18.744;2023-01-31T12:09:30;97351.22;;;2.81;65.18
70589;BME280;58152;49.202;18.744;2023-01-31T12:12:00;97351.16;;;2.84;64.79
70589;BME280;58152;49.202;18.744;2023-01-31T12:14:39;97355.47;;;2.84;65.02
70589;BME280;58152;49.202;18.744;2023-01-31T12:17:09;97342.56;;;2.80;65.33
70589;BME280;58152;49.202;18.744;2023-01-31T12:22:40;97358.97;;;2.81;65.23
70589;BME280;58152;49.202;18.744;2023-01-31T12:25:40;97349.50;;;2.80;64.91
70589;BME280;58152;49.202;18.744;2023-01-31T12:33:57;97338.28;;;2.78;65.57
70589;BME280;58152;49.202;18.744;2023-01-31T12:36:36;97350.28;;;2.85;65.17
70589;BME280;58152;49.202;18.744;2023-01-31T12:44:43;97332.97;;;2.87;65.71
70589;BME280;58152;49.202;18.744;2023-01-31T12:47:22;97336.44;;;2.86;65.40
70589;BME280;58152;49.202;18.744;2023-01-31T12:55:38;97336.34;;;2.92;65.19
70589;BME280;58152;49.202;18.744;2023-01-31T12:58:30;97336.34;;;2.92;64.93
70589;BME280;58152;49.202;18.744;2023-01-31T13:01:15;97341.56;;;2.91;64.86
70589;BME280;58152;49.202;18.744;2023-01-31T13:06:33;97340.78;;;2.86;64.89
70589;BME280;58152;49.202;18.744;2023-01-31T13:09:04;97343.31;;;2.87;64.89
70589;BME280;58152;49.202;18.744;2023-01-31T13:11:54;97345.09;;;2.84;65.37
70589;BME280;58152;49.202;18.744;2023-01-31T13:14:25;97342.53;;;2.82;65.23
70589;BME280;58152;49.202;18.744;2023-01-31T13:16:58;97333.94;;;2.80;65.33
70589;BME280;58152;49.202;18.744;2023-01-31T13:19:31;97331.28;;;2.85;65.73
70589;BME280;58152;49.202;18.744;2023-01-31T13:22:02;97326.09;;;2.85;65.85
70589;BME280;58152;49.202;18.744;2023-01-31T13:24:37;97327.78;;;2.87;65.75
70589;BME280;58152;49.202;18.744;2023-01-31T13:30:16;97315.53;;;2.97;65.86
70589;BME280;58152;49.202;18.744;2023-01-31T13:32:47;97303.50;;;2.93;66.15
70589;BME280;58152;49.202;18.744;2023-01-31T13:35:21;97307.78;;;2.95;65.80
70589;BME280;58152;49.202;18.744;2023-01-31T13:37:53;97308.72;;;2.91;65.95
70589;BME280;58152;49.202;18.744;2023-01-31T13:40:23;97301.00;;;2.87;65.94
70589;BME280;58152;49.202;18.744;2023-01-31T13:42:50;97306.28;;;2.82;66.40
70589;BME280;58152;49.202;18.744;2023-01-31T13:45:32;97301.19;;;2.74;66.21
70589;BME280;58152;49.202;18.744;2023-01-31T13:48:04;97302.13;;;2.72;66.49
70589;BME280;58152;49.202;18.744;2023-01-31T13:50:50;97307.28;;;2.72;66.25
70589;BME280;58152;49.202;18.744;2023-01-31T13:53:28;97309.94;;;2.67;66.79
70589;BME280;58152;49.202;18.744;2023-01-31T13:55:55;97301.38;;;2.64;66.60
70589;BME280;58152;49.202;18.744;2023-01-31T13:58:24;97304.81;;;2.66;66.73
70589;BME280;58152;49.202;18.744;2023-01-31T14:00:58;97308.25;;;2.65;66.93
70589;BME280;58152;49.202;18.744;2023-01-31T14:03:26;97313.41;;;2.68;67.15
70589;BME280;58152;49.202;18.744;2023-01-31T14:05:53;97302.19;;;2.67;67.14
70589;BME280;58152;49.202;18.744;2023-01-31T14:13:43;97293.56;;;2.67;67.26
70589;BME280;58152;49.202;18.744;2023-01-31T14:18:56;97299.56;;;2.70;66.61
70589;BME280;58152;49.202;18.744;2023-01-31T14:23:56;97293.53;;;2.68;67.32
70589;BME280;58152;49.202;18.744;2023-01-31T14:29:18;97296.91;;;2.75;66.96
70589;BME280;58152;49.202;18.744;2023-01-31T14:31:45;97296.00;;;2.74;67.13
70589;BME280;58152;49.202;18.744;2023-01-31T14:34:21;97294.22;;;2.78;67.16
70589;BME280;58152;49.202;18.744;2023-01-31T14:37:12;97314.00;;;2.85;67.11
70589;BME280;58152;49.202;18.744;2023-01-31T14:42:23;97312.38;;;2.78;67.35
70589;BME280;58152;49.202;18.744;2023-01-31T14:58:43;97287.78;;;2.48;68.67
70589;BME280;58152;49.202;18.744;2023-01-31T15:01:10;97278.38;;;2.41;68.62
70589;BME280;58152;49.202;18.744;2023-01-31T15:03:38;97280.94;;;2.44;69.27
70589;BME280;58152;49.202;18.744;2023-01-31T15:06:27;97282.63;;;2.48;69.31